Time;durP1;ratioP1;P1;durP2;ratioP2;P2;SDS_P1;SDS_P2;PMS_P1;PMS_P2;Temp;Humidity;BMP_temperature;BMP_pressure;BME280_temperature;BME280_humidity;BME280_pressure;Samples;Min_cycle;Max_cycle;Signal;HPM_P1;HPM_P2
2023/08/28 00:01:26;;;;;;;;;;;;;;;12.16;100.00;101146.66;5016018;28;19921;-71
2023/08/28 00:03:51;;;;;;;;;;;;;;;12.08;100.00;101146.41;5011109;28;20343;-72
2023/08/28 00:06:19;;;;;;;;;;;;;;;11.96;100.00;101149.06;5013487;28;19986;-71
2023/08/28 00:08:44;;;;;;;;;;;;;;;11.82;100.00;101157.34;5012958;28;20175;-72
2023/08/28 00:11:09;;;;;;;;;;;;;;;11.82;100.00;101165.41;5012704;28;19966;-72
2023/08/28 00:13:34;;;;;;;;;;;;;;;11.79;100.00;101163.84;4993770;28;19970;-72
2023/08/28 00:15:59;;;;;;;;;;;;;;;11.81;100.00;101166.38;4993464;28;19917;-72
2023/08/28 00:18:25;;;;;;;;;;;;;;;11.76;100.00;101157.84;4995164;28;19921;-72
2023/08/28 00:20:50;;;;;;;;;;;;;;;11.88;100.00;101154.19;5011919;28;19920;-72
2023/08/28 00:23:15;;;;;;;;;;;;;;;11.85;100.00;101165.19;5013632;28;19924;-71
2023/08/28 00:25:40;;;;;;;;;;;;;;;11.80;100.00;101159.28;5012486;28;19929;-71
2023/08/28 00:28:06;;;;;;;;;;;;;;;11.88;100.00;101150.66;4995258;28;20277;-72
2023/08/28 00:30:31;;;;;;;;;;;;;;;11.88;100.00;101153.34;5009486;28;19975;-72
2023/08/28 00:32:56;;;;;;;;;;;;;;;11.88;100.00;101156.88;5012841;28;19921;-71
2023/08/28 00:35:21;;;;;;;;;;;;;;;11.91;100.00;101158.47;5013075;28;19983;-71
2023/08/28 00:37:47;;;;;;;;;;;;;;;11.95;100.00;101157.25;5011505;28;20008;-71
2023/08/28 00:40:13;;;;;;;;;;;;;;;11.92;100.00;101150.28;5011416;28;19917;-71
2023/08/28 00:42:39;;;;;;;;;;;;;;;11.99;100.00;101156.06;5014362;28;20116;-71
2023/08/28 00:45:04;;;;;;;;;;;;;;;11.93;100.00;101157.38;5011797;28;19932;-71
2023/08/28 00:47:29;;;;;;;;;;;;;;;11.99;100.00;101158.75;5012917;28;20143;-71
2023/08/28 00:49:54;;;;;;;;;;;;;;;12.11;100.00;101148.84;4995235;28;19947;-71
2023/08/28 00:52:20;;;;;;;;;;;;;;;12.20;100.00;101147.25;5011279;28;19959;-72
2023/08/28 00:54:45;;;;;;;;;;;;;;;12.19;100.00;101137.47;5011688;28;20319;-71
2023/08/28 00:57:10;;;;;;;;;;;;;;;12.15;100.00;101142.25;4992154;28;20136;-71
2023/08/28 00:59:35;;;;;;;;;;;;;;;12.09;100.00;101145.41;5007688;28;19921;-72
2023/08/28 01:02:00;;;;;;;;;;;;;;;12.07;100.00;101142.88;5012928;28;19917;-72
2023/08/28 01:04:26;;;;;;;;;;;;;;;12.08;100.00;101141.00;5008806;28;20279;-71
2023/08/28 01:06:56;;;;;;;;;;;;;;;12.05;100.00;101135.91;5012547;28;20336;-71
2023/08/28 01:09:21;;;;;;;;;;;;;;;12.05;100.00;101127.81;5005398;28;19925;-71
2023/08/28 01:11:50;;;;;;;;;;;;;;;12.05;100.00;101125.97;5010374;28;19967;-71
2023/08/28 01:14:22;;;;;;;;;;;;;;;11.99;100.00;101127.34;4989844;28;20299;-71
2023/08/28 01:16:47;;;;;;;;;;;;;;;11.99;100.00;101127.34;5006047;28;19920;-71
2023/08/28 01:19:18;;;;;;;;;;;;;;;12.00;100.00;101128.16;4992141;28;19929;-71
2023/08/28 01:21:43;;;;;;;;;;;;;;;11.97;100.00;101117.63;5004142;28;20411;-71
2023/08/28 01:24:09;;;;;;;;;;;;;;;11.92;100.00;101118.00;4996852;28;19921;-71
2023/08/28 01:26:34;;;;;;;;;;;;;;;11.83;100.00;101119.59;5015475;28;20051;-72
2023/08/28 01:28:59;;;;;;;;;;;;;;;11.79;100.00;101114.53;4997244;28;19920;-71
2023/08/28 01:31:24;;;;;;;;;;;;;;;11.79;100.00;101117.22;5017958;28;19921;-71
2023/08/28 01:33:50;;;;;;;;;;;;;;;11.78;100.00;101124.47;5013991;28;19921;-71
2023/08/28 01:36:18;;;;;;;;;;;;;;;11.80;100.00;101119.81;5015647;28;19928;-71
2023/08/28 01:38:50;;;;;;;;;;;;;;;11.76;100.00;101122.88;5005842;28;20939;-72
2023/08/28 01:41:15;;;;;;;;;;;;;;;11.79;100.00;101115.41;4998392;28;20387;-71
2023/08/28 01:43:42;;;;;;;;;;;;;;;11.82;100.00;101114.31;4996005;28;19921;-72
2023/08/28 01:46:08;;;;;;;;;;;;;;;11.89;100.00;101102.09;5008707;28;19929;-71
2023/08/28 01:48:33;;;;;;;;;;;;;;;11.86;100.00;101107.72;5015982;28;19928;-71
2023/08/28 01:50:58;;;;;;;;;;;;;;;11.79;100.00;101107.34;5010602;28;19929;-72
2023/08/28 01:53:25;;;;;;;;;;;;;;;11.67;100.00;101102.91;5012405;28;19925;-71
2023/08/28 01:56:09;;;;;;;;;;;;;;;11.64;100.00;101095.97;5019236;28;19933;-71
2023/08/28 01:58:39;;;;;;;;;;;;;;;11.59;100.00;101100.84;5010886;28;20213;-71
2023/08/28 02:01:04;;;;;;;;;;;;;;;11.48;100.00;101082.00;5011651;28;20012;-72
2023/08/28 02:03:30;;;;;;;;;;;;;;;11.62;100.00;101103.28;4994561;28;20291;-71
2023/08/28 02:05:55;;;;;;;;;;;;;;;11.62;100.00;101105.13;4994522;28;19976;-71
2023/08/28 02:08:20;;;;;;;;;;;;;;;11.59;100.00;101105.38;5011468;28;19921;-71
2023/08/28 02:10:45;;;;;;;;;;;;;;;11.54;100.00;101111.09;5008439;28;19925;-71
2023/08/28 02:13:11;;;;;;;;;;;;;;;11.45;100.00;101107.28;5011138;28;19960;-72
2023/08/28 02:15:36;;;;;;;;;;;;;;;11.45;100.00;101109.13;5010766;28;19927;-71
2023/08/28 02:18:01;;;;;;;;;;;;;;;11.43;100.00;101103.84;5009327;28;19932;-72
2023/08/28 02:20:26;;;;;;;;;;;;;;;11.40;100.00;101094.22;4995269;28;19925;-71
2023/08/28 02:22:51;;;;;;;;;;;;;;;11.40;100.00;101096.91;5012527;28;19921;-71
2023/08/28 02:25:20;;;;;;;;;;;;;;;11.44;100.00;101092.13;5011556;28;19932;-71
2023/08/28 02:27:45;;;;;;;;;;;;;;;11.37;100.00;101091.75;5009049;28;19922;-71
2023/08/28 02:30:11;;;;;;;;;;;;;;;11.31;100.00;101097.59;5010508;28;19921;-71
2023/08/28 02:32:36;;;;;;;;;;;;;;;11.27;100.00;101093.41;5014641;28;19971;-71
2023/08/28 02:35:01;;;;;;;;;;;;;;;11.18;100.00;101103.06;5008306;28;19925;-71
2023/08/28 02:37:26;;;;;;;;;;;;;;;11.17;100.00;101116.63;5013166;28;20172;-71
2023/08/28 02:39:51;;;;;;;;;;;;;;;11.21;100.00;101118.94;5010960;28;19955;-71
2023/08/28 02:42:17;;;;;;;;;;;;;;;11.12;100.00;101108.03;5013511;28;19976;-72
2023/08/28 02:44:42;;;;;;;;;;;;;;;11.14;100.00;101104.25;5008248;28;20023;-72
2023/08/28 02:47:07;;;;;;;;;;;;;;;11.22;100.00;101099.16;5013741;28;20389;-71
2023/08/28 02:49:32;;;;;;;;;;;;;;;11.20;100.00;101084.13;5015846;28;19925;-71
2023/08/28 02:51:57;;;;;;;;;;;;;;;11.19;100.00;101099.38;5009904;28;19971;-71
2023/08/28 02:54:23;;;;;;;;;;;;;;;11.12;100.00;101105.34;5011397;28;20031;-71
2023/08/28 02:56:48;;;;;;;;;;;;;;;11.07;100.00;101106.56;5011806;28;19925;-71
2023/08/28 02:59:13;;;;;;;;;;;;;;;11.02;100.00;101107.88;5011951;28;19919;-72
2023/08/28 03:01:38;;;;;;;;;;;;;;;11.06;100.00;101112.06;5011264;28;19931;-72
2023/08/28 03:04:04;;;;;;;;;;;;;;;11.06;100.00;101112.06;5011006;28;19921;-71
2023/08/28 03:06:30;;;;;;;;;;;;;;;11.15;100.00;101119.41;5010717;28;19933;-71
2023/08/28 03:08:55;;;;;;;;;;;;;;;11.21;100.00;101120.78;5011668;28;19932;-72
2023/08/28 03:11:20;;;;;;;;;;;;;;;11.23;100.00;101117.00;5008882;28;20473;-71
2023/08/28 03:13:46;;;;;;;;;;;;;;;11.24;100.00;101118.72;5011725;28;19921;-71
2023/08/28 03:16:11;;;;;;;;;;;;;;;11.17;100.00;101114.78;5007208;28;19921;-71
2023/08/28 03:18:36;;;;;;;;;;;;;;;11.06;100.00;101118.28;5009001;28;20030;-71
2023/08/28 03:21:02;;;;;;;;;;;;;;;11.00;100.00;101125.94;5010568;28;20277;-71
2023/08/28 03:23:27;;;;;;;;;;;;;;;11.01;100.00;101131.19;5009722;28;20139;-71
2023/08/28 03:25:52;;;;;;;;;;;;;;;11.01;100.00;101130.34;4989668;28;20547;-71
2023/08/28 03:28:17;;;;;;;;;;;;;;;10.97;100.00;101136.94;5007143;28;20351;-71
2023/08/28 03:30:42;;;;;;;;;;;;;;;10.91;100.00;101132.88;5005817;28;20295;-71
2023/08/28 03:33:08;;;;;;;;;;;;;;;10.96;100.00;101136.09;5008382;28;20327;-71
2023/08/28 03:35:33;;;;;;;;;;;;;;;11.02;100.00;101130.22;5006525;28;20375;-71
2023/08/28 03:37:58;;;;;;;;;;;;;;;11.05;100.00;101137.22;5007582;28;20556;-71
2023/08/28 03:40:24;;;;;;;;;;;;;;;10.97;100.00;101140.50;5007086;28;20351;-71
2023/08/28 03:42:49;;;;;;;;;;;;;;;11.00;100.00;101145.59;5006364;28;19971;-71
2023/08/28 03:45:14;;;;;;;;;;;;;;;11.06;100.00;101147.84;5006242;28;20004;-72
2023/08/28 03:47:39;;;;;;;;;;;;;;;11.02;100.00;101148.19;5006952;28;19917;-71
2023/08/28 03:50:04;;;;;;;;;;;;;;;10.92;100.00;101153.41;5011881;28;19927;-71
2023/08/28 03:52:30;;;;;;;;;;;;;;;10.93;100.00;101152.44;5009136;28;19928;-71
2023/08/28 03:54:55;;;;;;;;;;;;;;;10.90;100.00;101150.81;5014760;28;19967;-72
2023/08/28 03:57:20;;;;;;;;;;;;;;;10.85;100.00;101152.13;5000177;28;20027;-71
2023/08/28 03:59:45;;;;;;;;;;;;;;;10.82;100.00;101158.59;5007113;28;19922;-72
2023/08/28 04:02:11;;;;;;;;;;;;;;;10.52;100.00;101129.47;5014036;28;20377;-71
2023/08/28 04:04:36;;;;;;;;;;;;;;;10.76;100.00;101167.94;5000611;28;20399;-71
2023/08/28 04:07:02;;;;;;;;;;;;;;;10.80;100.00;101171.28;5004344;28;20533;-71
2023/08/28 04:09:27;;;;;;;;;;;;;;;10.83;100.00;101175.56;5015044;28;20557;-71
2023/08/28 04:11:52;;;;;;;;;;;;;;;10.84;100.00;101178.16;5015020;28;19921;-71
2023/08/28 04:14:17;;;;;;;;;;;;;;;10.91;100.00;101183.91;5016460;28;20367;-72
2023/08/28 04:16:43;;;;;;;;;;;;;;;10.94;100.00;101183.69;5015092;28;19917;-72
2023/08/28 04:19:08;;;;;;;;;;;;;;;10.93;100.00;101185.50;5015720;28;19928;-71
2023/08/28 04:21:33;;;;;;;;;;;;;;;10.97;100.00;101193.34;5015397;28;19967;-71
2023/08/28 04:23:58;;;;;;;;;;;;;;;10.93;100.00;101187.34;5016338;28;20011;-72
2023/08/28 04:26:24;;;;;;;;;;;;;;;11.06;100.00;101182.75;5013516;28;19948;-71
2023/08/28 04:28:49;;;;;;;;;;;;;;;11.16;100.00;101191.00;5014811;28;20489;-71
2023/08/28 04:31:14;;;;;;;;;;;;;;;11.24;100.00;101183.22;5008515;28;20294;-71
2023/08/28 04:33:39;;;;;;;;;;;;;;;11.30;100.00;101183.75;5008540;28;19921;-72
2023/08/28 04:36:05;;;;;;;;;;;;;;;11.33;100.00;101186.19;5009840;28;20407;-71
2023/08/28 04:38:30;;;;;;;;;;;;;;;11.34;100.00;101190.59;5007001;28;19932;-72
2023/08/28 04:40:55;;;;;;;;;;;;;;;11.43;100.00;101189.88;5009050;28;20181;-71
2023/08/28 04:43:20;;;;;;;;;;;;;;;11.43;100.00;101191.72;5009010;28;20011;-71
2023/08/28 04:45:48;;;;;;;;;;;;;;;11.50;100.00;101190.31;5003300;28;20105;-72
2023/08/28 04:48:13;;;;;;;;;;;;;;;11.57;100.00;101188.00;4992182;28;19928;-71
2023/08/28 04:50:38;;;;;;;;;;;;;;;11.61;100.00;101192.16;5010790;28;19926;-71
2023/08/28 04:53:03;;;;;;;;;;;;;;;11.65;100.00;101185.59;5007257;28;19968;-71
2023/08/28 04:55:29;;;;;;;;;;;;;;;11.63;100.00;101177.63;5008151;28;19924;-71
2023/08/28 04:57:54;;;;;;;;;;;;;;;11.66;100.00;101163.94;5008401;28;19961;-72
2023/08/28 05:00:19;;;;;;;;;;;;;;;11.71;100.00;101163.56;5012874;28;19924;-71
2023/08/28 05:02:45;;;;;;;;;;;;;;;11.78;100.00;101162.13;5010229;28;20003;-71
2023/08/28 05:05:10;;;;;;;;;;;;;;;11.79;100.00;101158.47;5012717;28;19932;-72
2023/08/28 05:07:35;;;;;;;;;;;;;;;11.86;100.00;101158.81;5013918;28;19936;-72
2023/08/28 05:10:00;;;;;;;;;;;;;;;11.88;100.00;101156.88;5008953;28;20129;-72
2023/08/28 05:12:25;;;;;;;;;;;;;;;11.87;100.00;101159.69;5015209;28;19921;-71
2023/08/28 05:14:51;;;;;;;;;;;;;;;11.63;100.00;101122.97;4996911;28;19960;-71
2023/08/28 05:17:16;;;;;;;;;;;;;;;11.86;100.00;101145.38;5010782;28;20005;-71
2023/08/28 05:19:41;;;;;;;;;;;;;;;11.82;100.00;101151.97;5011439;28;19979;-72
2023/08/28 05:22:06;;;;;;;;;;;;;;;11.76;100.00;101150.63;5019376;28;20015;-71
2023/08/28 05:24:32;;;;;;;;;;;;;;;11.75;100.00;101156.13;5018349;28;19925;-71
2023/08/28 05:26:57;;;;;;;;;;;;;;;11.76;100.00;101158.69;5016572;28;20486;-71
2023/08/28 05:29:22;;;;;;;;;;;;;;;11.81;100.00;101163.69;5016135;28;19927;-71
2023/08/28 05:31:47;;;;;;;;;;;;;;;11.88;100.00;101161.41;5016547;28;19918;-71
2023/08/28 05:34:12;;;;;;;;;;;;;;;11.87;100.00;101165.91;5016042;28;19946;-71
2023/08/28 05:36:38;;;;;;;;;;;;;;;11.85;100.00;101165.19;5015324;28;19925;-72
2023/08/28 05:39:03;;;;;;;;;;;;;;;11.82;100.00;101163.59;5017163;28;19928;-71
2023/08/28 05:41:28;;;;;;;;;;;;;;;11.76;100.00;101164.06;5014228;28;19991;-71
2023/08/28 05:43:53;;;;;;;;;;;;;;;11.81;100.00;101167.25;5012539;28;19956;-71
2023/08/28 05:46:19;;;;;;;;;;;;;;;11.90;100.00;101167.53;5012687;28;20023;-71
2023/08/28 05:48:44;;;;;;;;;;;;;;;12.02;100.00;101165.75;5012252;28;21066;-71
2023/08/28 05:51:10;;;;;;;;;;;;;;;12.09;100.00;101165.13;5019402;28;20019;-71
2023/08/28 05:53:35;;;;;;;;;;;;;;;12.23;100.00;101164.03;4999522;28;19921;-71
2023/08/28 05:56:00;;;;;;;;;;;;;;;12.29;100.00;101165.38;5018203;28;19943;-72
2023/08/28 05:58:25;;;;;;;;;;;;;;;12.34;100.00;101168.56;5018050;28;20375;-72
2023/08/28 06:00:51;;;;;;;;;;;;;;;12.35;100.00;101172.97;5015340;28;20044;-71
2023/08/28 06:03:16;;;;;;;;;;;;;;;12.43;100.00;101178.59;5015171;28;20011;-71
2023/08/28 06:05:41;;;;;;;;;;;;;;;12.57;100.00;101165.84;5020394;28;20908;-72
2023/08/28 06:08:07;;;;;;;;;;;;;;;12.71;100.00;101175.50;4997203;28;20509;-71
2023/08/28 06:10:33;;;;;;;;;;;;;;;12.83;100.00;101162.84;5015818;28;20370;-72
2023/08/28 06:12:59;;;;;;;;;;;;;;;12.94;100.00;101167.34;5016280;28;19925;-72
2023/08/28 06:15:25;;;;;;;;;;;;;;;13.07;100.00;101159.97;5018432;28;19924;-72
2023/08/28 06:17:50;;;;;;;;;;;;;;;13.22;100.00;101160.53;5017828;28;20419;-72
2023/08/28 06:20:15;;;;;;;;;;;;;;;13.35;100.00;101157.66;5015911;28;19924;-72
2023/08/28 06:22:41;;;;;;;;;;;;;;;13.47;100.00;101159.31;5014844;28;19929;-72
2023/08/28 06:25:08;;;;;;;;;;;;;;;13.48;100.00;101142.16;5003102;28;19936;-72
2023/08/28 06:27:33;;;;;;;;;;;;;;;13.73;100.00;101171.56;5014516;28;20371;-71
2023/08/28 06:29:58;;;;;;;;;;;;;;;13.78;100.00;101175.56;4999146;28;19959;-71
2023/08/28 06:32:23;;;;;;;;;;;;;;;13.91;100.00;101171.81;5014710;28;19913;-71
2023/08/28 06:34:48;;;;;;;;;;;;;;;14.01;100.00;101177.28;5012929;28;20427;-71
2023/08/28 06:37:14;;;;;;;;;;;;;;;14.13;100.00;101172.66;5015514;28;20417;-71
2023/08/28 06:39:39;;;;;;;;;;;;;;;14.23;100.00;101173.53;5014952;28;20560;-71
2023/08/28 06:42:04;;;;;;;;;;;;;;;14.31;100.00;101176.41;5015451;28;20205;-71
2023/08/28 06:44:29;;;;;;;;;;;;;;;14.46;100.00;101173.34;5014053;28;19921;-71
2023/08/28 06:46:54;;;;;;;;;;;;;;;14.59;100.00;101179.38;5015080;28;19979;-71
2023/08/28 06:49:20;;;;;;;;;;;;;;;14.71;100.00;101166.63;5017437;28;20063;-72
2023/08/28 06:51:46;;;;;;;;;;;;;;;14.85;100.00;101171.63;5013026;28;19929;-71
2023/08/28 06:54:11;;;;;;;;;;;;;;;14.99;100.00;101170.34;5016329;28;20351;-71
2023/08/28 06:56:36;;;;;;;;;;;;;;;15.12;100.00;101175.50;5013798;28;19955;-72
2023/08/28 06:59:01;;;;;;;;;;;;;;;15.28;100.00;101180.34;5010448;28;19956;-71
2023/08/28 07:01:27;;;;;;;;;;;;;;;15.43;100.00;101180.78;5012725;28;20016;-71
2023/08/28 07:03:52;;;;;;;;;;;;;;;15.52;100.00;101187.16;5015485;28;20096;-71
2023/08/28 07:06:18;;;;;;;;;;;;;;;15.63;100.00;101188.03;4999669;28;20313;-71
2023/08/28 07:08:43;;;;;;;;;;;;;;;15.71;100.00;101180.88;5014719;28;19928;-71
2023/08/28 07:11:08;;;;;;;;;;;;;;;15.81;100.00;101191.69;5000032;28;19927;-71
2023/08/28 07:13:33;;;;;;;;;;;;;;;15.70;100.00;101190.00;4996536;28;19921;-71
2023/08/28 07:15:59;;;;;;;;;;;;;;;15.80;100.00;101191.84;5010965;28;19925;-71
2023/08/28 07:18:25;;;;;;;;;;;;;;;15.85;100.00;101192.28;5014804;28;20378;-71
2023/08/28 07:20:50;;;;;;;;;;;;;;;15.96;100.00;101189.41;5016021;28;19921;-71
2023/08/28 07:23:15;;;;;;;;;;;;;;;16.13;100.00;101192.38;4996745;28;19994;-71
2023/08/28 07:25:41;;;;;;;;;;;;;;;16.27;100.00;101188.34;5013282;28;20498;-71
2023/08/28 07:28:06;;;;;;;;;;;;;;;16.41;100.00;101187.84;5013786;28;20574;-71
2023/08/28 07:30:33;;;;;;;;;;;;;;;16.52;100.00;101192.22;5006124;28;20307;-72
2023/08/28 07:32:59;;;;;;;;;;;;;;;16.52;100.00;101185.94;5011014;28;20063;-71
2023/08/28 07:35:26;;;;;;;;;;;;;;;16.50;100.00;101186.09;5010608;28;20366;-71
2023/08/28 07:37:51;;;;;;;;;;;;;;;16.61;100.00;101185.91;5012248;28;19921;-71
2023/08/28 07:40:16;;;;;;;;;;;;;;;16.87;100.00;101181.59;5009833;28;20291;-71
2023/08/28 07:42:41;;;;;;;;;;;;;;;17.05;100.00;101193.38;5014545;28;19991;-72
2023/08/28 07:45:07;;;;;;;;;;;;;;;17.00;100.00;101187.53;5008277;28;19968;-71
2023/08/28 07:47:32;;;;;;;;;;;;;;;17.26;100.00;101194.91;5006075;28;20003;-71
2023/08/28 07:49:57;;;;;;;;;;;;;;;17.35;100.00;101188.53;5011426;28;19920;-72
2023/08/28 07:52:22;;;;;;;;;;;;;;;17.29;100.00;101188.31;5011194;28;19935;-74
2023/08/28 07:54:47;;;;;;;;;;;;;;;17.25;100.00;101187.78;5009209;28;19931;-71
2023/08/28 07:57:13;;;;;;;;;;;;;;;17.29;100.00;101191.91;5011190;28;20027;-71
2023/08/28 07:59:39;;;;;;;;;;;;;;;17.28;100.00;101189.31;5009474;28;19936;-71
2023/08/28 08:02:10;;;;;;;;;;;;;;;17.22;100.00;101196.22;5009660;28;20434;-72
2023/08/28 08:04:35;;;;;;;;;;;;;;;17.27;100.00;101187.63;5003671;28;19979;-71
2023/08/28 08:07:00;;;;;;;;;;;;;;;17.39;100.00;101192.66;5009294;28;20007;-71
2023/08/28 08:09:26;;;;;;;;;;;;;;;17.54;100.00;101192.13;5007673;28;19921;-71
2023/08/28 08:11:51;;;;;;;;;;;;;;;17.56;100.00;101192.81;5010414;28;19925;-72
2023/08/28 08:14:17;;;;;;;;;;;;;;;17.39;100.00;101187.22;5011507;28;19925;-71
2023/08/28 08:16:42;;;;;;;;;;;;;;;17.51;100.00;101192.44;5006102;28;21108;-71
2023/08/28 08:19:07;;;;;;;;;;;;;;;17.31;100.00;101192.59;5009443;28;19960;-72
2023/08/28 08:21:32;;;;;;;;;;;;;;;17.56;100.00;101184.66;5009383;28;20002;-72
2023/08/28 08:23:57;;;;;;;;;;;;;;;17.87;100.00;101186.94;5010882;28;19921;-71
2023/08/28 08:26:23;;;;;;;;;;;;;;;18.11;100.00;101182.72;4988935;28;19925;-71
2023/08/28 08:28:48;;;;;;;;;;;;;;;18.38;100.00;101188.97;5010992;28;19925;-71
2023/08/28 08:31:13;;;;;;;;;;;;;;;18.30;100.00;101157.13;5002849;28;19925;-71
2023/08/28 08:33:38;;;;;;;;;;;;;;;18.45;100.00;101168.25;5007424;28;19967;-71
2023/08/28 08:36:04;;;;;;;;;;;;;;;18.46;100.00;101171.84;4992183;28;19960;-71
2023/08/28 08:38:29;;;;;;;;;;;;;;;18.53;100.00;101178.31;5014847;28;20011;-71
2023/08/28 08:40:55;;;;;;;;;;;;;;;18.60;100.00;101173.91;4990466;28;20486;-71
2023/08/28 08:43:20;;;;;;;;;;;;;;;18.96;100.00;101171.00;4997933;28;20449;-71
2023/08/28 08:45:46;;;;;;;;;;;;;;;19.39;100.00;101173.59;5008139;28;20589;-71
2023/08/28 08:48:12;;;;;;;;;;;;;;;19.65;100.00;101175.31;4988561;28;19921;-71
2023/08/28 08:50:38;;;;;;;;;;;;;;;19.93;100.00;101175.78;4992182;28;20046;-71
2023/08/28 08:53:06;;;;;;;;;;;;;;;19.96;100.00;101181.91;5011033;28;20443;-71
2023/08/28 08:55:43;;;;;;;;;;;;;;;20.18;100.00;101180.34;4992653;28;19927;-72
2023/08/28 08:58:13;;;;;;;;;;;;;;;20.20;100.00;101176.41;5000449;28;20367;-72
2023/08/28 09:00:39;;;;;;;;;;;;;;;20.41;100.00;101182.31;5007467;28;19925;-72
2023/08/28 09:03:07;;;;;;;;;;;;;;;20.48;100.00;101183.31;5005667;28;19920;-72
2023/08/28 09:05:32;;;;;;;;;;;;;;;20.59;100.00;101173.88;4993308;28;19925;-71
2023/08/28 09:07:59;;;;;;;;;;;;;;;20.32;100.00;101176.03;5008534;28;20010;-71
2023/08/28 09:10:24;;;;;;;;;;;;;;;20.44;100.00;101174.63;5007006;28;19920;-71
2023/08/28 09:12:51;;;;;;;;;;;;;;;20.60;100.00;101179.16;5009172;28;20008;-72
2023/08/28 09:15:16;;;;;;;;;;;;;;;20.71;100.00;101175.16;5012372;28;19957;-71
2023/08/28 09:17:41;;;;;;;;;;;;;;;20.05;100.00;101172.72;4990821;28;20313;-71
2023/08/28 09:20:13;;;;;;;;;;;;;;;20.17;100.00;101171.31;5011233;28;19959;-71
2023/08/28 09:22:43;;;;;;;;;;;;;;;20.02;100.00;101134.91;5011286;28;19944;-71
2023/08/28 09:25:08;;;;;;;;;;;;;;;20.32;100.00;101171.41;5009987;28;19925;-71
2023/08/28 09:27:38;;;;;;;;;;;;;;;20.43;100.00;101169.34;5006367;28;19928;-72
2023/08/28 09:30:04;;;;;;;;;;;;;;;20.56;100.00;101166.06;5008378;28;19928;-71
2023/08/28 09:32:29;;;;;;;;;;;;;;;20.65;100.00;101165.00;5004875;28;19921;-71
2023/08/28 09:34:54;;;;;;;;;;;;;;;20.62;100.00;101162.63;5008434;28;19943;-71
2023/08/28 09:37:19;;;;;;;;;;;;;;;20.63;100.00;101170.63;4992558;28;19928;-71
2023/08/28 09:39:54;;;;;;;;;;;;;;;20.71;100.00;101167.00;5011561;28;19921;-72
2023/08/28 09:42:21;;;;;;;;;;;;;;;20.62;100.00;101174.38;5004480;28;19925;-71
2023/08/28 09:44:49;;;;;;;;;;;;;;;20.63;100.00;101170.63;5003864;28;19932;-72
2023/08/28 09:47:19;;;;;;;;;;;;;;;20.73;100.00;101170.38;5011092;28;20236;-71
2023/08/28 09:49:44;;;;;;;;;;;;;;;20.69;100.00;101171.78;5016501;28;19919;-71
2023/08/28 09:52:10;;;;;;;;;;;;;;;20.65;100.00;101175.91;5011682;28;19929;-71
2023/08/28 09:54:35;;;;;;;;;;;;;;;20.67;100.00;101180.16;5013947;28;19947;-72
2023/08/28 09:57:00;;;;;;;;;;;;;;;20.47;100.00;101178.88;5011201;28;19972;-72
2023/08/28 09:59:26;;;;;;;;;;;;;;;20.71;100.00;101175.16;5007717;28;20106;-71
2023/08/28 10:01:51;;;;;;;;;;;;;;;21.17;100.00;101179.88;4994297;28;20380;-71
2023/08/28 10:04:19;;;;;;;;;;;;;;;21.49;100.00;101177.06;4994238;28;19920;-71
2023/08/28 10:06:49;;;;;;;;;;;;;;;21.37;100.00;101177.53;5013436;28;19940;-71
2023/08/28 10:09:18;;;;;;;;;;;;;;;21.56;100.00;101181.63;4999319;28;20192;-71
2023/08/28 10:11:45;;;;;;;;;;;;;;;21.60;100.00;101176.63;4998086;28;19952;-71
2023/08/28 10:14:11;;;;;;;;;;;;;;;21.66;100.00;101175.06;5009429;28;20417;-71
2023/08/28 10:16:36;;;;;;;;;;;;;;;21.95;100.00;101185.22;5010839;28;19971;-71
2023/08/28 10:19:18;;;;;;;;;;;;;;;21.87;100.00;101172.47;5014525;28;20374;-75
2023/08/28 10:21:44;;;;;;;;;;;;;;;21.83;100.00;101173.03;4994375;28;19956;-73
2023/08/28 10:24:09;;;;;;;;;;;;;;;21.92;100.00;101169.19;4996364;28;20443;-71
2023/08/28 10:26:35;;;;;;;;;;;;;;;22.33;100.00;101165.97;4993330;28;19922;-72
2023/08/28 10:29:00;;;;;;;;;;;;;;;21.88;100.00;101165.97;4976765;28;19928;-72
2023/08/28 10:31:26;;;;;;;;;;;;;;;22.49;100.00;101168.75;5010762;28;20338;-72
2023/08/28 10:33:52;;;;;;;;;;;;;;;22.81;100.00;101166.59;5017456;28;19921;-73
2023/08/28 10:36:17;;;;;;;;;;;;;;;22.85;100.00;101167.91;5000097;28;19931;-72
2023/08/28 10:38:43;;;;;;;;;;;;;;;22.88;96.97;101175.75;5012726;28;19921;-73
2023/08/28 10:41:08;;;;;;;;;;;;;;;22.71;98.26;101177.88;5005393;28;19922;-73
2023/08/28 10:43:33;;;;;;;;;;;;;;;22.42;100.00;101176.84;4997275;28;19928;-72
2023/08/28 10:45:59;;;;;;;;;;;;;;;22.08;100.00;101178.25;4995359;28;19925;-71
2023/08/28 10:48:25;;;;;;;;;;;;;;;21.78;100.00;101170.88;4992338;28;19929;-72
2023/08/28 10:50:55;;;;;;;;;;;;;;;21.45;100.00;101171.13;5011360;28;19932;-72
2023/08/28 10:53:20;;;;;;;;;;;;;;;21.30;100.00;101179.28;5015485;28;20426;-72
2023/08/28 10:55:56;;;;;;;;;;;;;;;21.11;100.00;101170.53;5011537;28;19931;-72
2023/08/28 10:58:21;;;;;;;;;;;;;;;20.62;100.00;101179.81;4995831;28;20023;-72
2023/08/28 11:00:47;;;;;;;;;;;;;;;20.40;100.00;101176.00;5009920;28;19964;-71
2023/08/28 11:03:15;;;;;;;;;;;;;;;20.26;100.00;101174.84;5015582;28;19920;-72
2023/08/28 11:05:40;;;;;;;;;;;;;;;20.39;100.00;101168.88;5010126;28;19925;-72
2023/08/28 11:08:07;;;;;;;;;;;;;;;20.62;100.00;101168.09;5004457;28;20703;-72
2023/08/28 11:10:32;;;;;;;;;;;;;;;21.41;100.00;101164.34;5010332;28;19921;-72
2023/08/28 11:13:05;;;;;;;;;;;;;;;21.37;100.00;101163.00;5002941;28;20208;-72
2023/08/28 11:15:34;;;;;;;;;;;;;;;22.02;100.00;101158.81;5003422;28;19921;-72
2023/08/28 11:18:18;;;;;;;;;;;;;;;22.69;100.00;101152.56;5013070;28;20387;-72
2023/08/28 11:20:45;;;;;;;;;;;;;;;23.44;88.29;101153.16;5011675;28;19921;-72
2023/08/28 11:23:13;;;;;;;;;;;;;;;23.49;77.98;101149.81;5009700;28;20286;-72
2023/08/28 11:25:41;;;;;;;;;;;;;;;23.66;72.84;101147.63;5008334;28;19986;-73
2023/08/28 11:28:25;;;;;;;;;;;;;;;24.05;71.95;101142.66;5009014;28;19928;-71
2023/08/28 11:30:51;;;;;;;;;;;;;;;24.07;73.41;101152.38;5007222;28;20015;-73
2023/08/28 11:33:17;;;;;;;;;;;;;;;23.75;73.10;101143.72;5010587;28;19924;-71
2023/08/28 11:35:43;;;;;;;;;;;;;;;23.67;80.48;101147.44;4997751;28;20610;-71
2023/08/28 11:38:08;;;;;;;;;;;;;;;23.34;80.94;101145.28;5013215;28;19952;-72
2023/08/28 11:40:33;;;;;;;;;;;;;;;23.14;83.14;101138.75;4996659;28;20031;-71
2023/08/28 11:43:08;;;;;;;;;;;;;;;22.76;90.38;101145.31;5010529;28;20312;-72
2023/08/28 11:45:33;;;;;;;;;;;;;;;22.57;90.36;101142.13;5012591;28;19925;-71
2023/08/28 11:48:00;;;;;;;;;;;;;;;22.47;89.65;101136.94;5007896;28;19928;-71
2023/08/28 11:50:26;;;;;;;;;;;;;;;22.40;92.17;101138.72;5013149;28;19963;-71
2023/08/28 11:52:51;;;;;;;;;;;;;;;22.73;95.08;101145.69;5012230;28;19921;-71
2023/08/28 11:55:19;;;;;;;;;;;;;;;23.23;90.76;101148.53;5011229;28;19928;-72
2023/08/28 11:57:44;;;;;;;;;;;;;;;23.42;79.66;101146.19;5010041;28;19921;-72
2023/08/28 12:00:11;;;;;;;;;;;;;;;24.10;78.19;101151.97;4996051;28;19925;-71
2023/08/28 12:02:37;;;;;;;;;;;;;;;24.05;76.45;101151.75;5010600;28;20392;-72
2023/08/28 12:05:04;;;;;;;;;;;;;;;24.27;68.61;101152.47;4992865;28;19925;-71
2023/08/28 12:07:29;;;;;;;;;;;;;;;23.82;62.16;101138.25;5009361;28;19925;-71
2023/08/28 12:09:57;;;;;;;;;;;;;;;23.86;70.36;101157.88;5010915;28;20295;-72
2023/08/28 12:12:23;;;;;;;;;;;;;;;23.81;71.25;101150.28;4983443;28;20284;-71
2023/08/28 12:14:49;;;;;;;;;;;;;;;23.57;74.89;101146.09;4995034;28;21453;-71
2023/08/28 12:17:18;;;;;;;;;;;;;;;23.42;75.75;101133.31;5009693;28;19921;-71
2023/08/28 12:19:43;;;;;;;;;;;;;;;23.06;78.81;101150.66;5013133;28;19921;-71
2023/08/28 12:22:10;;;;;;;;;;;;;;;22.84;77.32;101153.38;5008410;28;19922;-71